createdAt,value
2017-09-14T06:11:07.184Z,1.67
2017-09-14T06:13:36.352Z,2.57
2017-09-14T06:16:04.781Z,1.93
2017-09-14T06:18:32.889Z,1.67
2017-09-14T06:21:02.077Z,3.03
2017-09-14T06:23:31.273Z,1.50
2017-09-14T06:25:59.693Z,2.10
2017-09-14T06:28:28.087Z,4.03
2017-09-14T06:30:56.526Z,1.37
2017-09-14T06:33:24.993Z,4.93
2017-09-14T06:35:53.210Z,1.47
2017-09-14T06:38:21.420Z,4.20
2017-09-14T06:40:50.600Z,1.67
2017-09-14T06:43:19.575Z,1.80
2017-09-14T06:45:48.601Z,2.17
2017-09-14T06:48:16.856Z,2.77
2017-09-14T06:50:45.277Z,2.20
2017-09-14T06:53:14.466Z,1.23
2017-09-14T06:55:43.692Z,6.13
2017-09-14T06:58:12.092Z,2.30
2017-09-14T07:00:40.143Z,1.53
2017-09-14T07:03:08.570Z,2.87
2017-09-14T07:05:37.012Z,1.30
2017-09-14T07:08:05.433Z,1.50
2017-09-14T07:10:33.868Z,1.20
2017-09-14T07:13:02.268Z,2.20
2017-09-14T07:15:31.466Z,2.20
2017-09-14T07:17:59.769Z,1.43
2017-09-14T07:20:28.396Z,1.13
2017-09-14T07:22:56.903Z,1.40
2017-09-14T07:25:25.339Z,1.23
2017-09-14T07:27:54.355Z,1.37
2017-09-14T07:30:22.781Z,6.00
2017-09-14T07:32:51.989Z,2.07
2017-09-14T07:35:20.394Z,1.40
2017-09-14T07:37:48.807Z,1.23
2017-09-14T07:40:17.266Z,1.17
2017-09-14T07:42:45.700Z,2.40
2017-09-14T07:45:14.131Z,1.73
2017-09-14T07:47:42.619Z,1.37
2017-09-14T07:50:10.697Z,1.10
2017-09-14T07:52:39.141Z,1.10
2017-09-14T07:55:07.582Z,1.20
2017-09-14T07:57:36.005Z,1.30
2017-09-14T08:00:03.749Z,1.20
2017-09-14T08:02:31.829Z,2.33
2017-09-14T08:05:00.269Z,1.13
2017-09-14T08:07:27.967Z,1.20
2017-09-14T08:09:56.510Z,1.60
2017-09-14T08:12:24.560Z,1.63
2017-09-14T08:14:52.656Z,1.13
2017-09-14T08:17:21.837Z,1.20
2017-09-14T08:19:49.926Z,1.97
2017-09-14T08:22:17.628Z,1.03
2017-09-14T08:24:46.821Z,1.10
2017-09-14T08:27:15.227Z,1.13
2017-09-14T08:29:43.643Z,1.20
2017-09-14T08:32:12.816Z,1.43
2017-09-14T08:34:41.980Z,1.07
2017-09-14T08:37:11.917Z,0.97
2017-09-14T08:39:40.329Z,1.10
2017-09-14T08:42:08.762Z,4.27
2017-09-14T08:44:36.851Z,1.00
2017-09-14T08:47:05.282Z,0.93
2017-09-14T08:49:33.522Z,1.00
2017-09-14T08:52:01.728Z,1.30
2017-09-14T08:54:30.153Z,1.07
2017-09-14T08:56:58.589Z,0.90
2017-09-14T08:59:27.013Z,1.23
2017-09-14T09:01:55.231Z,1.00
2017-09-14T09:04:23.669Z,0.90
2017-09-14T09:06:52.064Z,1.10
2017-09-14T09:09:21.261Z,1.00
2017-09-14T09:11:50.428Z,1.03
2017-09-14T09:14:19.606Z,0.90
2017-09-14T09:16:48.052Z,0.97
2017-09-14T09:19:16.483Z,0.77
2017-09-14T09:21:44.910Z,0.90
2017-09-14T09:24:14.122Z,1.07
2017-09-14T09:26:42.516Z,0.97
2017-09-14T09:29:10.955Z,0.97
2017-09-14T09:31:39.410Z,1.27
2017-09-14T09:34:07.650Z,0.97
2017-09-14T09:36:36.525Z,1.00
2017-09-14T09:39:04.052Z,1.00
2017-09-14T09:41:33.215Z,0.93
2017-09-14T09:44:02.342Z,1.27
2017-09-14T09:46:30.794Z,1.17
2017-09-14T09:48:59.190Z,1.00
2017-09-14T09:51:27.285Z,0.80
2017-09-14T09:53:55.707Z,0.90
2017-09-14T09:56:24.117Z,0.97
2017-09-14T09:58:52.512Z,1.10
2017-09-14T10:01:20.970Z,1.47
2017-09-14T10:03:49.397Z,0.87
2017-09-14T10:06:17.477Z,1.10
2017-09-14T10:08:45.925Z,1.43
2017-09-14T10:11:14.346Z,0.90
2017-09-14T10:13:43.539Z,0.80
2017-09-14T10:16:11.993Z,0.90
2017-09-14T10:18:40.400Z,0.97
2017-09-14T10:21:08.833Z,1.00
2017-09-14T10:23:37.062Z,0.90
2017-09-14T10:26:04.584Z,0.90
2017-09-14T10:28:33.027Z,1.00
2017-09-14T10:31:01.473Z,0.80
2017-09-14T10:33:29.864Z,0.90
2017-09-14T10:35:58.084Z,0.80
2017-09-14T10:38:26.553Z,0.80
2017-09-14T10:40:54.985Z,1.63
2017-09-14T10:43:23.419Z,0.90
2017-09-14T10:45:51.863Z,0.83
2017-09-14T10:48:21.715Z,0.80
2017-09-14T10:50:50.117Z,0.80
2017-09-14T10:53:18.571Z,0.90
2017-09-14T10:55:46.972Z,0.70
2017-09-14T10:58:15.372Z,1.10
2017-09-14T11:00:43.826Z,0.93
2017-09-14T11:03:12.991Z,1.00
2017-09-14T11:05:41.413Z,0.87
2017-09-14T11:08:09.865Z,5.97
2017-09-14T11:10:38.268Z,0.90
2017-09-14T11:13:06.672Z,0.73
2017-09-14T11:15:34.817Z,3.50
2017-09-14T11:18:03.292Z,5.20
2017-09-14T11:20:31.782Z,5.23
2017-09-14T11:23:00.237Z,3.17
2017-09-14T11:25:28.501Z,3.13
2017-09-14T11:27:56.933Z,13.43
2017-09-14T11:30:26.141Z,4.27
2017-09-14T11:32:54.580Z,1.50
2017-09-14T11:35:23.769Z,5.13
2017-09-14T11:37:52.230Z,3.40
2017-09-14T11:40:20.690Z,5.97
2017-09-14T11:42:49.847Z,4.10
2017-09-14T11:45:18.304Z,4.43
2017-09-14T11:47:46.051Z,5.47
2017-09-14T11:50:14.134Z,12.50
2017-09-14T11:52:42.993Z,4.30
2017-09-14T11:55:12.155Z,7.33
2017-09-14T11:57:40.556Z,4.63
2017-09-14T12:00:08.813Z,3.40
2017-09-14T12:02:38.015Z,3.67
2017-09-14T12:05:06.469Z,4.83
2017-09-14T12:07:34.966Z,2.90
2017-09-14T12:10:03.358Z,2.60
2017-09-14T12:12:31.755Z,4.43
2017-09-14T12:15:00.209Z,4.90
2017-09-14T12:17:29.372Z,3.30
2017-09-14T12:19:57.772Z,2.63
2017-09-14T12:22:26.222Z,2.83
2017-09-14T12:24:55.415Z,10.57
2017-09-14T12:27:23.816Z,3.53
2017-09-14T12:29:52.235Z,2.00
2017-09-14T12:32:20.650Z,2.50
2017-09-14T12:34:49.051Z,2.70
2017-09-14T12:37:18.250Z,2.40
2017-09-14T12:39:46.684Z,1.60
2017-09-14T12:42:15.080Z,4.27
2017-09-14T12:44:43.509Z,1.37
2017-09-14T12:47:12.682Z,2.20
2017-09-14T12:49:41.365Z,2.63
2017-09-14T12:52:09.840Z,4.40
2017-09-14T12:54:38.242Z,1.63
2017-09-14T12:57:06.673Z,3.00
2017-09-14T12:59:35.126Z,3.97
2017-09-14T13:02:03.549Z,1.40
2017-09-14T13:04:32.751Z,2.07
2017-09-14T13:07:00.987Z,1.90
2017-09-14T13:09:30.152Z,1.60
2017-09-14T13:11:58.564Z,1.33
2017-09-14T13:14:26.802Z,1.20
2017-09-14T13:16:55.062Z,1.87
2017-09-14T13:19:24.075Z,1.40
2017-09-14T13:21:52.335Z,1.30
2017-09-14T13:24:20.218Z,2.20
2017-09-14T13:26:48.864Z,1.20
2017-09-14T13:29:17.295Z,1.30
2017-09-14T13:31:45.720Z,1.40
2017-09-14T13:34:14.149Z,1.70
2017-09-14T13:36:42.582Z,1.33
2017-09-14T13:39:10.648Z,1.47
2017-09-14T13:41:38.718Z,2.33
2017-09-14T13:44:06.613Z,1.37
2017-09-14T13:46:35.136Z,4.33
2017-09-14T13:49:03.347Z,1.00
2017-09-14T13:51:31.767Z,1.10
2017-09-14T13:53:59.973Z,4.00
2017-09-14T13:56:28.061Z,1.30
2017-09-14T13:58:56.556Z,1.53
2017-09-14T14:01:24.951Z,1.40
2017-09-14T14:03:53.376Z,1.63
2017-09-14T14:06:21.179Z,1.90
2017-09-14T14:08:48.928Z,1.70
2017-09-14T14:11:18.126Z,1.83
2017-09-14T14:13:46.188Z,2.03
2017-09-14T14:16:13.943Z,4.37
2017-09-14T14:18:42.039Z,2.30
2017-09-14T14:21:10.501Z,2.57
2017-09-14T14:23:38.899Z,2.30
2017-09-14T14:26:08.091Z,2.20
2017-09-14T14:28:37.315Z,2.00
2017-09-14T14:31:05.742Z,4.90
2017-09-14T14:33:33.957Z,2.40
2017-09-14T14:36:02.676Z,3.73
2017-09-14T14:38:30.410Z,2.80
2017-09-14T14:40:59.236Z,2.57
2017-09-14T14:43:27.703Z,2.07
2017-09-14T14:45:56.130Z,2.23
2017-09-14T14:48:24.216Z,3.33
2017-09-14T14:50:52.623Z,4.37
2017-09-14T14:53:21.796Z,2.53
2017-09-14T14:55:50.193Z,3.20
2017-09-14T14:58:18.306Z,2.07
2017-09-14T15:00:47.475Z,1.80
2017-09-14T15:03:15.690Z,1.90
2017-09-14T15:05:44.126Z,1.97
2017-09-14T15:08:12.516Z,1.90
2017-09-14T15:10:40.950Z,1.70
2017-09-14T15:13:09.418Z,1.70
2017-09-14T15:15:37.821Z,4.10
2017-09-14T15:18:05.914Z,1.70
2017-09-14T15:20:34.593Z,1.70
2017-09-14T15:23:03.257Z,1.20
2017-09-14T15:25:32.483Z,1.20
2017-09-14T15:28:00.758Z,1.60
2017-09-14T15:30:29.257Z,1.23
2017-09-14T15:32:57.469Z,1.27
2017-09-14T15:35:25.703Z,3.20
2017-09-14T15:37:53.945Z,1.53
2017-09-14T15:43:33.615Z,1.23
2017-09-14T15:46:03.388Z,1.47
2017-09-14T15:48:37.426Z,3.90
2017-09-14T15:51:11.433Z,1.73
2017-09-14T15:53:40.627Z,1.23
2017-09-14T15:56:09.827Z,1.20
2017-09-14T15:58:38.273Z,1.67
2017-09-14T16:01:07.438Z,2.10
2017-09-14T16:03:36.265Z,1.90
2017-09-14T16:06:04.724Z,1.73
2017-09-14T16:08:32.958Z,1.50
2017-09-14T16:11:01.394Z,1.90
2017-09-14T16:13:29.819Z,1.37
2017-09-14T16:15:58.241Z,1.53
2017-09-14T16:18:26.677Z,2.40
2017-09-14T16:20:55.116Z,1.87
2017-09-14T16:23:23.545Z,2.47
2017-09-14T16:25:51.939Z,1.60
2017-09-14T16:28:20.363Z,2.20
2017-09-14T16:30:48.799Z,1.73
2017-09-14T16:33:17.481Z,1.50
2017-09-14T16:35:46.693Z,17.30
2017-09-14T16:38:15.094Z,1.40
2017-09-14T16:40:44.261Z,1.57
2017-09-14T16:43:12.716Z,13.80
2017-09-14T16:45:41.115Z,34.30
2017-09-14T16:48:09.558Z,27.53
2017-09-14T16:50:37.972Z,12.53
2017-09-14T16:53:06.401Z,16.53
2017-09-14T16:55:34.502Z,18.60
2017-09-14T16:58:02.998Z,17.93
2017-09-14T17:00:31.430Z,12.13
2017-09-14T17:02:59.836Z,16.17
2017-09-14T17:05:28.310Z,11.13
2017-09-14T17:07:56.748Z,3.43
2017-09-14T17:10:25.153Z,5.43
2017-09-14T17:12:53.611Z,6.00
2017-09-14T17:15:21.685Z,5.37
2017-09-14T17:17:50.852Z,16.00
2017-09-14T17:20:20.069Z,9.90
2017-09-14T17:22:48.501Z,8.97
2017-09-14T17:25:18.094Z,3.10
2017-09-14T17:27:45.849Z,4.17
2017-09-14T17:30:14.692Z,5.00
2017-09-14T17:32:43.120Z,14.43
2017-09-14T17:35:11.553Z,10.60
2017-09-14T17:37:40.724Z,10.83
2017-09-14T17:40:09.893Z,5.60
2017-09-14T17:42:38.320Z,4.43
2017-09-14T17:45:06.562Z,3.53
2017-09-14T17:47:34.952Z,7.30
2017-09-14T17:50:03.372Z,6.43
2017-09-14T17:52:31.813Z,7.13
2017-09-14T17:55:00.645Z,2.03
2017-09-14T17:57:29.103Z,5.07
2017-09-14T17:59:57.534Z,2.07
2017-09-14T18:02:26.701Z,1.77
2017-09-14T18:04:55.149Z,7.03
2017-09-14T18:07:23.360Z,1.93
2017-09-14T18:09:51.794Z,8.23
2017-09-14T18:12:20.821Z,3.80
2017-09-14T18:14:49.258Z,1.33
2017-09-14T18:17:17.696Z,6.00
2017-09-14T18:19:46.915Z,2.40
2017-09-14T18:22:15.338Z,2.03
2017-09-14T18:24:44.504Z,4.80
2017-09-14T18:27:12.962Z,3.33
2017-09-14T18:29:41.353Z,2.23
2017-09-14T18:32:10.558Z,2.50
2017-09-14T18:34:38.627Z,3.20
2017-09-14T18:37:07.056Z,1.33
2017-09-14T18:39:36.220Z,3.37
2017-09-14T18:42:05.443Z,2.13
2017-09-14T18:44:33.881Z,2.80
2017-09-14T18:47:03.064Z,1.80
2017-09-14T18:49:32.235Z,1.10
2017-09-14T18:52:01.424Z,4.80
2017-09-14T18:54:30.593Z,3.50
2017-09-14T18:56:59.784Z,6.20
2017-09-14T18:59:28.990Z,2.00
2017-09-14T19:01:57.391Z,4.90
2017-09-14T19:04:25.859Z,3.13
2017-09-14T19:06:54.281Z,1.00
2017-09-14T19:09:22.713Z,3.83
2017-09-14T19:11:51.920Z,2.73
2017-09-14T19:14:20.346Z,3.90
2017-09-14T19:16:48.778Z,1.27
2017-09-14T19:19:17.183Z,1.67
2017-09-14T19:21:45.844Z,2.90
2017-09-14T19:24:14.293Z,1.20
2017-09-14T19:26:42.716Z,6.37
2017-09-14T19:29:11.158Z,2.80
2017-09-14T19:31:40.319Z,5.60
2017-09-14T19:34:09.508Z,6.33
2017-09-14T19:36:38.685Z,4.33
2017-09-14T19:39:07.339Z,2.87
2017-09-14T19:41:35.760Z,2.83
2017-09-14T19:44:03.830Z,1.57
2017-09-14T19:46:31.917Z,1.80
2017-09-14T19:49:00.327Z,1.50
2017-09-14T19:51:28.756Z,2.20
2017-09-14T19:53:57.957Z,1.77
2017-09-14T19:56:26.457Z,2.17
2017-09-14T19:58:54.882Z,1.27
2017-09-14T20:01:23.316Z,2.00
2017-09-14T20:03:51.770Z,1.10
2017-09-14T20:06:19.819Z,2.20
2017-09-14T20:08:48.219Z,1.83
2017-09-14T20:11:16.734Z,2.00
2017-09-14T20:13:46.182Z,1.10
2017-09-14T20:16:14.388Z,8.13
2017-09-14T20:18:42.811Z,2.23
2017-09-14T20:21:11.220Z,2.13
2017-09-14T20:23:39.907Z,1.23
2017-09-14T20:26:08.571Z,1.80
2017-09-14T20:28:37.156Z,2.33
2017-09-14T20:31:05.605Z,2.40
2017-09-14T20:33:33.369Z,1.20
2017-09-14T20:36:02.548Z,2.60
2017-09-14T20:38:31.733Z,1.67
2017-09-14T20:41:00.719Z,1.20
2017-09-14T20:43:29.751Z,1.00
2017-09-14T20:45:57.964Z,2.83
2017-09-14T20:48:26.418Z,1.30
2017-09-14T20:50:55.580Z,1.57
2017-09-14T20:53:24.064Z,1.20
2017-09-14T20:55:53.297Z,1.27
2017-09-14T20:58:22.474Z,1.27
2017-09-14T21:00:50.900Z,1.43
2017-09-14T21:03:19.310Z,1.10
2017-09-14T21:05:47.707Z,4.93
2017-09-14T21:08:16.961Z,1.87
2017-09-14T21:10:45.063Z,1.40
2017-09-14T21:13:13.472Z,1.50
2017-09-14T21:15:41.901Z,1.17
2017-09-14T21:18:10.331Z,2.87
2017-09-14T21:20:39.534Z,1.77
2017-09-14T21:23:07.961Z,3.20
2017-09-14T21:25:36.392Z,1.87
2017-09-14T21:28:04.800Z,1.70
2017-09-14T21:30:32.889Z,1.93
2017-09-14T21:33:01.324Z,1.70
2017-09-14T21:35:30.156Z,3.50
2017-09-14T21:37:58.591Z,3.07
2017-09-14T21:40:27.007Z,1.70
2017-09-14T21:42:55.437Z,1.60
2017-09-14T21:45:23.518Z,9.53
2017-09-14T21:47:51.969Z,1.33
2017-09-14T21:50:20.398Z,1.40
2017-09-14T21:52:48.834Z,1.63
2017-09-14T21:55:18.046Z,1.33
2017-09-14T21:57:46.440Z,1.60
2017-09-14T22:00:14.496Z,2.20
2017-09-14T22:02:42.920Z,5.00
2017-09-14T22:05:11.332Z,6.73
2017-09-14T22:07:39.744Z,2.93
2017-09-14T22:10:08.160Z,1.20
2017-09-14T22:12:36.562Z,1.20
2017-09-14T22:15:04.858Z,1.10
2017-09-14T22:17:33.318Z,3.10
